Chpt Rég MD LNPCCO - D

Date : 14/03/2010

Place Nom Licence Catégorie Club Temps Points
1 TANTART Delphine 19136 D18 5907HF 0:28:16 4891
2 LOTERIE Laurine 7045 D16 5907HF 0:31:28 4394
3 LAMINETTE Pauline 14911 D18 5907HF 0:33:14 4160
4 CUVILLIERS Perrine 18632 D18 5907HF 0:34:54 3961
5 FACHAUX Angélique 17577 D18 5907HF 0:36:04 3833
6 LEPERQUE Ophelie 20200 D16 6208HF 0:36:52 3750
7 LANQUETIN Céline 18611 D18 5907HF 0:39:42 3482
8 GUILMAIN Melanie 20572 D16 6208HF 0:40:57 3376
9 GOURLAIN Mathilde 18299 D16 6205HF 0:42:34 3248
10 SIX Pauline 20215 D16 5906HF 0:43:27 3182
11 CAMAS Mandye 19238 D16 5907HF 0:43:51 3153
12 DECOOPMAN Clémentine 20213 D18 5906HF 0:48:58 2823
13 RICHARD Nicole 14245 D60 0207HF 0:50:06 2760
14 MOULIERE M-Bernadette 2888 D65 0207HF 0:50:53 2717
15 VANOVERBERGHE Camille 21323 D16 6208HF 0:53:12 2599
16 GOLEC Zoé 20439 D16 6205HF 1:00:24 2289
17 SELINGUE Cécile 20224 D16 6208HF 1:00:59 2267
18 LECOYER Annick 2885 D55 0207HF 1:03:30 2177
19 TREULIER Emmanuelle 20302 D40 5909HF 1:06:42 2073
20 POULAIN Gael 9172 H14 5908HF 1:17:05 1794
21 EJSMONT Martine 14164 D60 6208HF 1:27:19 1583
22 SIX Yvette 22911 D45 5906HF 1:45:30 1310
23 LUDEWIG-JAMES Carol 15894 D70 5907HF 1:47:08 1290
24 RIMETZ Marcelline 22235 D55 6208HF 2:13:39 1034
25 MAZINGUE Lucie 22349 D12 5908HF 2:18:47 996
26 DOZIAS Lune 22558 D12 5908HF 2:22:43 969
27 CLAVEL Nathalie 22803 D40 5907HF 2:50:25 811
CLAVEL Matéo 22804 H14 5907HF pm 0